Time;durP1;ratioP1;P1;durP2;ratioP2;P2;SDS_P1;SDS_P2;PMS_P1;PMS_P2;Temp;Humidity;BMP_temperature;BMP_pressure;BME280_temperature;BME280_humidity;BME280_pressure;Samples;Min_cycle;Max_cycle;Signal;HPM_P1;HPM_P2
2023/10/05 00:01:24;;;;;;;6.95;3.25;;;333.60;2329.60;;;;;;4986964;28;20376;-80
2023/10/05 00:04:45;;;;;;;5.82;2.80;;;333.50;2329.60;;;;;;4998977;28;20070;-79
2023/10/05 00:07:32;;;;;;;4.65;1.88;;;333.50;2329.60;;;;;;4994707;28;20050;-80
2023/10/05 00:10:06;;;;;;;3.55;2.15;;;333.50;2329.60;;;;;;4986665;28;20039;-80
2023/10/05 00:12:39;;;;;;;3.75;1.90;;;333.50;2329.60;;;;;;4989860;28;20042;-80
2023/10/05 00:15:37;;;;;;;9.63;2.33;;;333.50;2329.60;;;;;;4989838;28;20101;-80
2023/10/05 00:18:25;;;;;;;7.18;2.20;;;333.50;2329.60;;;;;;4921635;29;20072;-79
2023/10/05 00:21:11;;;;;;;6.60;2.70;;;333.40;2329.60;;;;;;4934312;29;20449;-79
2023/10/05 00:24:00;;;;;;;4.43;2.42;;;333.30;2329.60;;;;;;4948991;29;20095;-79
2023/10/05 00:26:56;;;;;;;6.32;2.40;;;333.20;2329.60;;;;;;4969889;29;20031;-80
2023/10/05 00:29:40;;;;;;;5.10;2.25;;;333.20;2329.60;;;;;;4970666;29;20607;-80
2023/10/05 00:32:39;;;;;;;7.22;2.63;;;333.10;2329.60;;;;;;5086446;22;20049;-80
2023/10/05 00:38:31;;;;;;;6.22;2.30;;;333.10;2329.60;;;;;;5030723;28;20045;-80
2023/10/05 00:41:09;;;;;;;5.60;2.33;;;332.90;2329.60;;;;;;5031064;28;20057;-80
2023/10/05 00:43:35;;;;;;;5.90;2.45;;;332.90;2329.60;;;;;;5016723;28;20088;-78
2023/10/05 00:46:21;;;;;;;6.47;2.30;;;332.90;2329.60;;;;;;5014466;28;20041;-80
2023/10/05 00:52:18;;;;;;;5.22;2.80;;;332.80;2329.60;;;;;;4908595;29;20057;-79
2023/10/05 00:54:54;;;;;;;4.95;2.13;;;332.80;2329.60;;;;;;4919798;29;20052;-79
2023/10/05 00:57:24;;;;;;;4.65;2.00;;;332.80;2329.60;;;;;;4926488;29;20047;-81
2023/10/05 01:03:10;;;;;;;5.10;1.92;;;308.10;2304.00;;;;;;4934688;29;20169;-80
2023/10/05 01:08:59;;;;;;;3.63;1.70;;;308.10;2304.00;;;;;;4930156;29;19921;-80
2023/10/05 01:11:43;;;;;;;4.55;2.35;;;308.10;2304.00;;;;;;4926158;29;20027;-80
2023/10/05 01:14:17;;;;;;;4.47;2.05;;;308.10;2304.00;;;;;;4931416;29;20043;-79
2023/10/05 01:16:46;;;;;;;6.07;2.67;;;308.00;2304.00;;;;;;4930958;29;20040;-80
2023/10/05 01:26:00;;;;;;;6.13;2.75;;;308.10;2304.00;;;;;;4940962;29;20067;-82
2023/10/05 01:28:51;;;;;;;5.00;2.90;;;308.10;2304.00;;;;;;4969722;28;20026;-80
2023/10/05 01:31:24;;;;;;;6.38;3.25;;;308.10;2304.00;;;;;;5019052;28;20027;-81
2023/10/05 01:33:58;;;;;;;8.77;3.30;;;308.10;2304.00;;;;;;4983042;28;20050;-79
2023/10/05 01:36:43;;;;;;;6.55;3.40;;;308.10;2304.00;;;;;;5003240;28;20030;-79
2023/10/05 01:39:13;;;;;;;7.85;3.10;;;308.10;2304.00;;;;;;5027785;28;20030;-81
2023/10/05 01:42:00;;;;;;;6.32;3.10;;;308.10;2304.00;;;;;;5016156;28;20033;-79
2023/10/05 01:44:36;;;;;;;5.95;3.15;;;308.10;2304.00;;;;;;4992081;28;20034;-80
2023/10/05 01:47:23;;;;;;;7.10;2.88;;;308.10;2304.00;;;;;;4993213;28;20074;-81
2023/10/05 01:50:08;;;;;;;4.85;2.72;;;308.00;2304.00;;;;;;4991286;28;20042;-81
2023/10/05 01:52:45;;;;;;;4.18;2.10;;;308.00;2304.00;;;;;;4972559;29;20027;-81
2023/10/05 01:55:41;;;;;;;5.53;1.88;;;308.00;2304.00;;;;;;4965172;28;20095;-81
2023/10/05 01:58:08;;;;;;;6.00;1.67;;;308.00;2304.00;;;;;;4976330;28;20039;-80
2023/10/05 02:00:38;;;;;;;6.43;1.80;;;308.00;2304.00;;;;;;4990335;28;20050;-80
2023/10/05 02:03:12;;;;;;;5.50;1.80;;;308.00;2304.00;;;;;;4990919;28;20031;-81
2023/10/05 02:09:20;;;;;;;3.65;1.58;;;308.10;2304.00;;;;;;4993291;28;20152;-80
2023/10/05 02:11:49;;;;;;;5.43;1.60;;;308.10;2304.00;;;;;;4988086;28;20034;-81
2023/10/05 02:14:42;;;;;;;3.85;1.60;;;332.80;2329.60;;;;;;4976750;28;20682;-80
2023/10/05 02:17:13;;;;;;;6.10;1.50;;;332.80;2329.60;;;;;;4974962;28;20015;-80
2023/10/05 02:20:12;;;;;;;3.22;1.52;;;332.90;2329.60;;;;;;4991514;28;20030;-80
2023/10/05 02:22:40;;;;;;;3.60;1.50;;;332.90;2329.60;;;;;;4951720;29;20036;-79
2023/10/05 02:25:12;;;;;;;2.83;1.50;;;332.90;2329.60;;;;;;4948464;29;20068;-81
2023/10/05 02:27:46;;;;;;;4.15;1.50;;;333.00;2329.60;;;;;;4954526;28;20039;-79
2023/10/05 02:30:26;;;;;;;4.45;1.80;;;332.90;2329.60;;;;;;4992224;28;20038;-80
2023/10/05 02:32:58;;;;;;;3.78;1.55;;;332.90;2329.60;;;;;;4990957;28;20051;-80
2023/10/05 02:35:48;;;;;;;3.00;1.52;;;333.00;2329.60;;;;;;4987021;28;20113;-80
2023/10/05 02:38:19;;;;;;;5.20;1.77;;;333.00;2329.60;;;;;;4970484;28;20102;-79
2023/10/05 02:40:54;;;;;;;3.58;1.60;;;332.90;2329.60;;;;;;4987026;28;20054;-80
2023/10/05 02:43:27;;;;;;;5.20;1.65;;;332.90;2329.60;;;;;;4984408;28;20019;-80
2023/10/05 02:46:09;;;;;;;3.00;1.60;;;332.80;2329.60;;;;;;4960679;28;20039;-80
2023/10/05 02:48:43;;;;;;;4.80;1.48;;;332.80;2329.60;;;;;;4957669;28;20053;-80
2023/10/05 02:51:18;;;;;;;7.35;1.70;;;332.80;2329.60;;;;;;4975530;28;20023;-81
2023/10/05 02:53:46;;;;;;;5.80;1.55;;;332.80;2329.60;;;;;;4972168;28;20035;-80
2023/10/05 02:56:29;;;;;;;6.30;1.75;;;332.80;2329.60;;;;;;4987352;28;20023;-81
2023/10/05 02:58:59;;;;;;;4.72;1.70;;;332.80;2329.60;;;;;;4972261;28;20037;-79
2023/10/05 03:01:26;;;;;;;3.92;1.67;;;333.30;2329.60;;;;;;5007941;28;20019;-81
2023/10/05 03:04:44;;;;;;;3.92;1.90;;;308.10;2304.00;;;;;;4992108;28;20038;-81
2023/10/05 03:07:20;;;;;;;;;;;332.80;2329.60;;;;;;5067493;23;20058;-80
2023/10/05 03:09:52;;;;;;;3.80;1.73;;;308.10;2304.00;;;;;;4993971;28;19925;-81
2023/10/05 03:12:23;;;;;;;4.05;1.48;;;308.10;2304.00;;;;;;4993375;28;20039;-80
2023/10/05 03:14:54;;;;;;;2.58;1.30;;;308.10;2304.00;;;;;;4993710;28;20085;-80
2023/10/05 03:17:26;;;;;;;5.10;1.90;;;308.00;2304.00;;;;;;4992718;28;20034;-80
2023/10/05 03:20:24;;;;;;;3.60;1.75;;;308.00;2304.00;;;;;;4994486;28;20035;-80
2023/10/05 03:22:58;;;;;;;5.88;2.03;;;307.80;2304.00;;;;;;4988817;28;20015;-79
2023/10/05 03:25:28;;;;;;;16.90;11.32;;;307.60;2304.00;;;;;;4996675;28;20035;-79
2023/10/05 03:27:56;;;;;;;5.70;2.30;;;307.50;2304.00;;;;;;4997578;28;20034;-80
2023/10/05 03:30:30;;;;;;;4.97;1.90;;;307.20;2304.00;;;;;;4997130;28;20035;-80
2023/10/05 03:33:00;;;;;;;7.57;2.58;;;282.30;2278.40;;;;;;4963492;28;20030;-80
2023/10/05 03:35:35;;;;;;;;;;;282.20;2278.40;;;;;;4997562;28;20022;-81
2023/10/05 03:38:22;;;;;;;4.18;1.85;;;282.00;2278.40;;;;;;5043624;23;19925;-79
2023/10/05 03:41:15;;;;;;;4.13;2.00;;;281.80;2278.40;;;;;;5056268;28;20060;-80
2023/10/05 03:43:56;;;;;;;4.13;2.08;;;281.60;1945.60;;;;;;5040041;23;20034;-79
2023/10/05 03:46:26;;;;;;;4.13;1.83;;;281.60;2278.40;;;;;;5037740;28;20022;-78
2023/10/05 03:49:02;;;;;;;6.85;2.35;;;281.70;2278.40;;;;;;5023728;28;20034;-80
2023/10/05 03:51:30;;;;;;;5.35;2.13;;;281.60;2278.40;;;;;;5010322;23;20041;-80
2023/10/05 03:53:56;;;;;;;4.43;2.60;;;256.90;2252.80;;;;;;5003594;28;20030;-81
2023/10/05 03:56:30;;;;;;;4.65;2.28;;;256.80;2252.80;;;;;;5036703;28;20041;-82
2023/10/05 03:59:00;;;;;;;4.00;2.20;;;256.70;2252.80;;;;;;5038307;28;20022;-80
2023/10/05 04:01:26;;;;;;;5.90;2.45;;;256.60;2252.80;;;;;;5036893;28;20058;-80
2023/10/05 04:03:55;;;;;;;6.10;2.35;;;256.70;2252.80;;;;;;5017029;28;20110;-79
2023/10/05 04:06:26;;;;;;;4.90;2.38;;;256.70;2252.80;;;;;;4987464;28;20038;-82
2023/10/05 04:09:11;;;;;;;5.07;2.20;;;256.60;2252.80;;;;;;5019911;28;20053;-78
2023/10/05 04:11:48;;;;;;;4.53;2.20;;;256.60;2252.80;;;;;;5111272;23;20110;-80
2023/10/05 04:14:15;;;;;;;4.47;2.17;;;256.50;2252.80;;;;;;4970196;28;20102;-80
2023/10/05 04:16:42;;;;;;;5.65;2.10;;;256.50;2252.80;;;;;;5026128;28;20045;-80
2023/10/05 04:19:18;;;;;;;4.68;2.00;;;256.40;2252.80;;;;;;5043623;22;20039;-84
2023/10/05 04:21:46;;;;;;;5.63;2.13;;;256.10;2252.80;;;;;;4996555;23;20036;-81
2023/10/05 04:24:17;;;;;;;4.68;2.20;;;256.20;2252.80;;;;;;4933795;28;20053;-83
2023/10/05 04:26:47;;;;;;;6.45;2.17;;;256.10;2252.80;;;;;;5252005;23;20029;-80
2023/10/05 04:29:21;;;;;;;7.50;2.22;;;282.50;2278.40;;;;;;5037168;28;20053;-81
2023/10/05 04:32:03;;;;;;;6.38;2.05;;;256.40;2252.80;;;;;;5037935;28;20042;-80
2023/10/05 04:34:33;;;;;;;6.75;2.20;;;256.50;2252.80;;;;;;5055351;28;20025;-82
2023/10/05 04:37:21;;;;;;;9.25;3.10;;;256.50;2252.80;;;;;;5036640;28;20037;-80
2023/10/05 04:39:48;;;;;;;7.05;4.00;;;256.60;2252.80;;;;;;5034485;28;20060;-81
2023/10/05 04:42:19;;;;;;;9.02;3.65;;;256.70;2252.80;;;;;;5055329;28;20033;-80
2023/10/05 04:44:52;;;;;;;7.03;4.10;;;256.80;2252.80;;;;;;5053246;28;20030;-80
2023/10/05 04:47:18;;;;;;;6.75;3.97;;;256.80;2252.80;;;;;;5037542;28;20112;-81
2023/10/05 04:49:44;;;;;;;7.07;3.70;;;256.90;2252.80;;;;;;5037269;28;20033;-81
2023/10/05 04:52:23;;;;;;;6.70;3.38;;;281.60;2278.40;;;;;;5057711;28;20068;-80
2023/10/05 04:54:57;;;;;;;6.45;3.47;;;281.60;2278.40;;;;;;5045016;28;20037;-80
2023/10/05 04:57:39;;;;;;;11.10;3.90;;;281.60;2278.40;;;;;;5023904;28;20033;-83
2023/10/05 05:08:35;;;;;;;6.45;3.42;;;281.80;2278.40;;;;;;5043505;28;20501;-80
2023/10/05 05:11:03;;;;;;;8.00;3.38;;;281.80;2278.40;;;;;;5050673;28;20063;-79
2023/10/05 05:13:33;;;;;;;6.22;3.50;;;281.90;2278.40;;;;;;5052380;28;20041;-80
2023/10/05 05:16:02;;;;;;;8.52;3.75;;;281.90;2278.40;;;;;;5041359;28;20037;-81
2023/10/05 05:18:38;;;;;;;9.82;4.20;;;282.00;2278.40;;;;;;5055985;28;20041;-80
2023/10/05 05:21:08;;;;;;;9.50;3.60;;;282.10;2278.40;;;;;;5039266;28;20035;-81
2023/10/05 05:26:10;;;;;;;8.20;3.70;;;282.30;2278.40;;;;;;5060765;23;20042;-80
2023/10/05 05:28:43;;;;;;;7.53;3.38;;;307.60;2304.00;;;;;;4999690;23;20055;-78
2023/10/05 05:33:57;;;;;;;7.13;3.42;;;282.10;2278.40;;;;;;4987317;28;20018;-83
2023/10/05 05:44:13;;;;;;;11.00;3.88;;;307.50;2304.00;;;;;;5000254;28;20026;-81
2023/10/05 05:47:31;;;;;;;12.75;4.30;;;307.50;2304.00;;;;;;4983218;28;20026;-80
2023/10/05 05:49:53;;;;;;;9.00;4.03;;;307.60;2304.00;;;;;;4940131;29;20032;-80
2023/10/05 05:56:03;;;;;;;6.30;3.30;;;307.80;2304.00;;;;;;4935172;29;20075;-82
2023/10/05 05:58:54;;;;;;;5.78;2.53;;;307.90;2304.00;;;;;;5021223;23;20033;-84
2023/10/05 06:01:46;;;;;;;5.72;2.78;;;308.00;2304.00;;;;;;5167266;23;20049;-80
2023/10/05 06:13:01;;;;;;;6.10;2.50;;;333.10;2329.60;;;;;;4994021;28;20055;-81
2023/10/05 06:15:50;;;;;;;5.70;2.60;;;333.30;2329.60;;;;;;5054364;23;20042;-81
2023/10/05 06:18:32;;;;;;;6.25;2.63;;;358.70;2329.60;;;;;;5016334;28;20034;-81
2023/10/05 06:21:24;;;;;;;5.00;2.60;;;358.60;2329.60;;;;;;4995773;28;20035;-82
2023/10/05 06:24:12;;;;;;;5.35;2.92;;;358.70;2329.60;;;;;;5023849;23;20022;-83
2023/10/05 06:26:48;;;;;;;5.45;2.70;;;358.80;2329.60;;;;;;5038512;28;20014;-80
2023/10/05 06:29:44;;;;;;;7.13;2.95;;;358.70;2329.60;;;;;;5049028;22;20037;-80
2023/10/05 06:32:17;;;;;;;6.47;2.95;;;358.70;2329.60;;;;;;4943074;29;20075;-80
2023/10/05 06:34:48;;;;;;;8.95;3.22;;;358.80;2329.60;;;;;;4960441;28;20039;-80
2023/10/05 06:37:53;;;;;;;10.05;3.60;;;359.10;2329.60;;;;;;4978359;28;20022;-81
2023/10/05 06:40:22;;;;;;;7.85;3.45;;;;;;;;;;4977192;28;20015;-80
2023/10/05 06:42:57;;;;;;;6.57;3.25;;;359.30;2329.60;;;;;;4970859;29;20046;-80
2023/10/05 06:45:24;;;;;;;9.43;2.90;;;359.30;2329.60;;;;;;4974333;28;20036;-81
2023/10/05 06:48:19;;;;;;;5.75;2.45;;;359.30;2329.60;;;;;;4993524;28;20042;-82
2023/10/05 06:57:53;;;;;;;8.65;4.82;;;384.00;2329.60;;;;;;4955490;28;20043;-81
2023/10/05 07:17:36;;;;;;;11.77;5.80;;;384.90;2329.60;;;;;;4962142;26;20052;-81
2023/10/05 07:20:22;;;;;;;11.13;5.40;;;;;;;;;;4944582;29;20027;-81
2023/10/05 07:23:32;;;;;;;7.88;4.22;;;435.70;2355.20;;;;;;4958669;28;20047;-83
2023/10/05 07:26:34;;;;;;;8.88;4.45;;;435.60;2355.20;;;;;;4980115;23;20079;-84
2023/10/05 07:29:53;;;;;;;5.75;2.92;;;435.60;2355.20;;;;;;4982818;28;20145;-83
2023/10/05 07:38:46;;;;;;;5.32;2.20;;;460.80;2380.80;;;;;;5022785;23;20061;-87
2023/10/05 07:41:11;;;;;;;6.25;2.08;;;461.60;2380.80;;;;;;4986607;28;20035;-87
2023/10/05 07:43:37;;;;;;;10.65;2.75;;;461.70;2380.80;;;;;;4997220;28;20019;-85
2023/10/05 07:46:06;;;;;;;5.22;2.50;;;486.90;2380.80;;;;;;4998030;28;20081;-85
2023/10/05 07:48:32;;;;;;;5.05;2.15;;;512.40;2380.80;;;;;;4979742;28;20053;-86
2023/10/05 07:50:58;;;;;;;5.97;2.28;;;512.50;2380.80;;;;;;4976691;28;20023;-85
2023/10/05 07:53:25;;;;;;;5.85;2.40;;;512.50;2380.80;;;;;;4995709;28;20109;-84
2023/10/05 07:55:52;;;;;;;4.63;1.88;;;537.90;2380.80;;;;;;4995791;28;20023;-85
2023/10/05 07:58:19;;;;;;;4.20;2.00;;;512.20;2329.60;;;;;;4996190;28;20066;-87
2023/10/05 08:00:45;;;;;;;5.00;2.25;;;486.90;2380.80;;;;;;4996145;28;20072;-84
2023/10/05 08:03:11;;;;;;;5.65;1.83;;;487.10;2380.80;;;;;;4978773;28;20027;-85
2023/10/05 08:05:37;;;;;;;6.82;2.20;;;487.10;2380.80;;;;;;4996519;28;20045;-87
2023/10/05 08:08:40;;;;;;;7.22;2.13;;;487.10;2380.80;;;;;;4997411;28;20030;-87
2023/10/05 08:11:06;;;;;;;;;;;487.20;2380.80;;;;;;4997525;28;20077;-86
2023/10/05 08:13:32;;;;;;;5.18;1.90;;;486.70;2380.80;;;;;;4997380;28;20352;-87
2023/10/05 08:16:03;;;;;;;4.28;2.33;;;486.90;2380.80;;;;;;4978577;28;20034;-86
2023/10/05 08:18:29;;;;;;;4.85;1.90;;;487.00;2380.80;;;;;;4944859;28;20035;-85
2023/10/05 08:20:55;;;;;;;4.47;2.00;;;487.00;2380.80;;;;;;4960255;28;20031;-86
2023/10/05 08:23:39;;;;;;;5.20;1.80;;;486.70;2380.80;;;;;;4993656;28;20469;-85
2023/10/05 08:26:07;;;;;;;3.83;2.05;;;512.00;2380.80;;;;;;4996869;28;20023;-84
2023/10/05 08:28:32;;;;;;;7.55;2.40;;;512.40;2355.20;;;;;;4996966;28;20387;-84
2023/10/05 08:31:07;;;;;;;8.18;1.80;;;538.40;2329.60;;;;;;4979649;28;20121;-84
2023/10/05 08:33:39;;;;;;;3.67;2.00;;;563.70;2176.00;;;;;;4979168;28;20038;-83
2023/10/05 08:36:06;;;;;;;4.25;1.60;;;;;;;;;;4977169;28;20031;-84
2023/10/05 08:38:36;;;;;;;2.90;1.63;;;;;;;;;;4956523;29;20070;-84
2023/10/05 08:41:07;;;;;;;5.70;1.50;;;615.20;1868.80;;;;;;4956418;29;20039;-84
2023/10/05 08:43:38;;;;;;;3.88;1.55;;;640.00;1766.40;;;;;;4956307;29;20024;-84
2023/10/05 08:46:15;;;;;;;4.00;1.58;;;614.90;1740.80;;;;;;4957612;28;20019;-83
2023/10/05 08:48:41;;;;;;;4.15;1.67;;;614.40;1792.00;;;;;;4957427;28;20038;-83
2023/10/05 08:51:13;;;;;;;5.30;1.50;;;614.50;1792.00;;;;;;4957489;29;20023;-83
2023/10/05 08:53:48;;;;;;;4.45;1.60;;;615.00;1740.80;;;;;;4965809;28;20121;-83
2023/10/05 08:56:15;;;;;;;4.40;1.58;;;615.00;1689.60;;;;;;4975346;28;20030;-82
2023/10/05 08:58:48;;;;;;;4.57;1.63;;;589.60;1792.00;;;;;;4976772;28;20046;-83
2023/10/05 09:01:30;;;;;;;4.18;1.55;;;589.40;1792.00;;;;;;4976839;28;20432;-83
2023/10/05 09:06:56;;;;;;;4.45;1.73;;;589.50;1792.00;;;;;;4976453;28;20035;-83
2023/10/05 09:09:53;;;;;;;5.45;1.60;;;588.80;1843.20;;;;;;4976474;28;20051;-83
2023/10/05 09:12:23;;;;;;;5.30;2.25;;;563.60;1894.40;;;;;;4972372;28;20027;-85
2023/10/05 09:15:04;;;;;;;4.07;2.20;;;564.00;1868.80;;;;;;4975410;28;20492;-84
2023/10/05 09:17:31;;;;;;;5.50;2.20;;;564.10;1868.80;;;;;;4980767;28;20027;-85
2023/10/05 09:19:57;;;;;;;4.15;1.58;;;589.00;1868.80;;;;;;4996061;28;20029;-84
2023/10/05 09:22:23;;;;;;;5.57;2.20;;;589.40;2048.00;;;;;;4987725;28;20384;-84
2023/10/05 09:24:57;;;;;;;4.18;1.90;;;589.70;1792.00;;;;;;4974475;28;20042;-83
2023/10/05 09:27:47;;;;;;;5.65;2.00;;;615.00;1664.00;;;;;;4956746;28;20034;-83
2023/10/05 09:30:13;;;;;;;4.45;2.20;;;615.30;1664.00;;;;;;4954719;29;20374;-83
2023/10/05 09:32:39;;;;;;;4.93;2.10;;;;;;;;;;4956161;28;20034;-82
2023/10/05 09:35:09;;;;;;;5.53;2.15;;;;;;;;;;4968073;28;20023;-82
2023/10/05 09:37:44;;;;;;;3.58;2.03;;;691.30;1510.40;;;;;;4973954;28;20053;-81
2023/10/05 09:40:15;;;;;;;5.90;2.50;;;691.70;1484.80;;;;;;4974919;28;20031;-82
2023/10/05 09:42:43;;;;;;;4.32;1.58;;;691.80;1484.80;;;;;;4975338;28;20126;-81
2023/10/05 09:45:12;;;;;;;3.85;1.90;;;691.60;1459.20;;;;;;4975888;28;20077;-82
2023/10/05 09:47:40;;;;;;;4.32;1.85;;;691.70;1382.40;;;;;;4975785;28;20085;-82
2023/10/05 09:50:13;;;;;;;3.67;1.83;;;691.80;1382.40;;;;;;4974691;28;20027;-82
2023/10/05 09:53:20;;;;;;;4.45;1.77;;;716.80;1356.80;;;;;;4975467;28;20539;-82
2023/10/05 09:55:53;;;;;;;4.93;2.00;;;717.00;1356.80;;;;;;4962523;28;20024;-81
2023/10/05 09:58:20;;;;;;;4.20;1.73;;;717.30;1382.40;;;;;;4974362;28;20090;-82
2023/10/05 10:03:13;;;;;;;4.97;1.88;;;717.40;1356.80;;;;;;4976691;28;20037;-83
2023/10/05 10:06:08;;;;;;;3.90;1.60;;;717.50;1305.60;;;;;;4977897;28;20026;-83
2023/10/05 10:09:39;;;;;;;6.28;2.00;;;717.50;1305.60;;;;;;4976245;28;20047;-82
2023/10/05 10:12:10;;;;;;;2.40;1.50;;;742.50;1305.60;;;;;;4954771;28;20055;-82
2023/10/05 10:14:41;;;;;;;5.25;1.58;;;742.50;1305.60;;;;;;4974911;28;20042;-82
2023/10/05 10:17:24;;;;;;;4.45;1.55;;;742.50;1280.00;;;;;;4976120;28;20501;-81
2023/10/05 10:19:55;;;;;;;3.63;1.67;;;742.40;1280.00;;;;;;4974750;28;20041;-82
2023/10/05 10:22:28;;;;;;;5.03;1.70;;;742.40;1305.60;;;;;;4979221;28;20023;-82
2023/10/05 10:24:57;;;;;;;3.95;1.90;;;717.00;1280.00;;;;;;4980346;28;20034;-83
2023/10/05 10:27:27;;;;;;;3.08;1.55;;;692.00;1305.60;;;;;;4976980;28;20077;-82
2023/10/05 10:29:56;;;;;;;3.97;1.77;;;691.60;1280.00;;;;;;4977653;28;20043;-83
2023/10/05 10:32:32;;;;;;;4.90;1.92;;;691.60;1280.00;;;;;;4975507;28;20085;-83
2023/10/05 10:35:26;;;;;;;4.18;1.90;;;691.60;1280.00;;;;;;4972286;28;20382;-82
2023/10/05 10:37:54;;;;;;;5.25;1.70;;;691.60;1280.00;;;;;;4969017;28;20027;-81
2023/10/05 10:45:41;;;;;;;3.60;1.40;;;666.20;1305.60;;;;;;5016110;28;20534;-82
2023/10/05 10:50:47;;;;;;;3.58;1.67;;;666.40;1280.00;;;;;;4996562;28;20022;-81
2023/10/05 10:53:17;;;;;;;3.55;1.50;;;666.40;1280.00;;;;;;4986393;28;20030;-82
2023/10/05 10:55:58;;;;;;;3.67;1.80;;;691.20;1331.20;;;;;;4976912;28;20059;-83
2023/10/05 10:58:25;;;;;;;3.83;1.60;;;691.60;1305.60;;;;;;5007091;28;20028;-83
2023/10/05 11:01:04;;;;;;;3.00;1.77;;;691.50;1280.00;;;;;;5000736;28;20034;-84
2023/10/05 11:03:32;;;;;;;4.07;1.50;;;691.30;1280.00;;;;;;4999239;28;20033;-83
2023/10/05 11:05:58;;;;;;;2.80;1.42;;;691.60;1305.60;;;;;;5001859;28;20034;-82
2023/10/05 11:08:30;;;;;;;4.80;1.75;;;692.10;1305.60;;;;;;4995016;28;20038;-82
2023/10/05 11:11:00;;;;;;;4.03;1.48;;;717.30;1280.00;;;;;;4978233;28;20134;-82
2023/10/05 11:13:27;;;;;;;2.60;1.48;;;717.50;1228.80;;;;;;4995127;28;20043;-83
2023/10/05 11:15:57;;;;;;;2.88;1.50;;;717.10;1203.20;;;;;;4995501;28;20030;-84
2023/10/05 11:18:26;;;;;;;3.83;1.50;;;717.10;1203.20;;;;;;4977135;28;20022;-84
2023/10/05 11:20:52;;;;;;;2.38;1.40;;;717.40;1228.80;;;;;;4982231;28;20030;-83
2023/10/05 11:23:26;;;;;;;2.70;1.40;;;717.40;1177.60;;;;;;4974184;28;20070;-83
2023/10/05 11:26:17;;;;;;;2.38;1.13;;;717.00;1228.80;;;;;;5006045;28;20086;-84
2023/10/05 11:28:39;;;;;;;4.28;1.83;;;692.10;1152.00;;;;;;5009354;28;20034;-83
2023/10/05 11:31:06;;;;;;;3.92;1.70;;;666.20;1203.20;;;;;;4991307;28;20117;-84
2023/10/05 11:33:33;;;;;;;2.90;1.33;;;666.40;1228.80;;;;;;4994814;28;20109;-84
2023/10/05 11:36:08;;;;;;;3.08;1.40;;;665.90;1254.40;;;;;;4989649;28;20476;-82
2023/10/05 11:38:35;;;;;;;3.08;1.40;;;640.90;1305.60;;;;;;4980440;28;20407;-83
2023/10/05 11:41:08;;;;;;;3.72;1.85;;;665.80;1356.80;;;;;;4998967;28;20046;-84
2023/10/05 11:43:34;;;;;;;3.92;1.50;;;665.90;1331.20;;;;;;4995133;28;20030;-85
2023/10/05 11:48:50;;;;;;;3.75;1.50;;;640.60;1280.00;;;;;;4991828;28;20506;-85
2023/10/05 11:51:19;;;;;;;3.20;1.70;;;640.50;1484.80;;;;;;4994498;28;20034;-82
2023/10/05 11:53:47;;;;;;;3.40;1.40;;;640.00;1331.20;;;;;;4988748;28;20027;-81
2023/10/05 11:56:17;;;;;;;4.07;1.65;;;640.00;1305.60;;;;;;4980272;28;20054;-83
2023/10/05 11:58:46;;;;;;;3.30;1.60;;;640.40;1280.00;;;;;;4995560;28;20523;-82
2023/10/05 12:01:13;;;;;;;3.60;1.50;;;640.50;1280.00;;;;;;4997183;28;20030;-85
2023/10/05 12:03:44;;;;;;;4.38;2.00;;;640.20;1305.60;;;;;;4981172;28;20035;-84
2023/10/05 12:06:12;;;;;;;3.60;1.95;;;640.40;1254.40;;;;;;4993220;28;20028;-83
2023/10/05 12:08:41;;;;;;;3.45;1.55;;;665.60;1280.00;;;;;;4957441;28;20404;-83
2023/10/05 12:11:10;;;;;;;2.88;1.38;;;640.60;1254.40;;;;;;4980554;28;20113;-83
2023/10/05 12:13:36;;;;;;;4.15;1.83;;;640.70;1254.40;;;;;;4994564;28;20038;-80
2023/10/05 12:16:11;;;;;;;4.07;1.70;;;665.60;1305.60;;;;;;4985933;28;20383;-81
2023/10/05 12:18:38;;;;;;;3.08;1.77;;;640.80;1305.60;;;;;;5005186;28;20026;-80
2023/10/05 12:21:04;;;;;;;3.15;1.70;;;640.70;1254.40;;;;;;5003294;28;20080;-81
2023/10/05 12:23:30;;;;;;;3.80;1.75;;;640.90;1280.00;;;;;;4987875;28;20147;-82
2023/10/05 12:25:57;;;;;;;6.43;2.30;;;665.90;1254.40;;;;;;5010460;28;20033;-81
2023/10/05 12:28:23;;;;;;;4.43;1.83;;;665.60;1254.40;;;;;;5007131;28;20042;-80
2023/10/05 12:30:49;;;;;;;3.90;1.75;;;665.60;1254.40;;;;;;5006747;28;20030;-82
2023/10/05 12:33:16;;;;;;;5.03;1.60;;;665.70;1228.80;;;;;;5011718;28;20038;-84
2023/10/05 12:35:43;;;;;;;4.13;2.00;;;665.60;1254.40;;;;;;4998457;28;20026;-82
2023/10/05 12:38:10;;;;;;;3.80;1.73;;;666.40;1254.40;;;;;;4995473;28;20026;-84
2023/10/05 12:40:40;;;;;;;3.63;1.63;;;666.50;1254.40;;;;;;4970019;28;20211;-81
2023/10/05 12:43:06;;;;;;;4.50;1.70;;;666.30;1203.20;;;;;;4977055;28;20031;-82
2023/10/05 12:45:33;;;;;;;3.80;1.80;;;666.40;1254.40;;;;;;4977464;28;20109;-80
2023/10/05 12:47:59;;;;;;;3.85;1.80;;;691.40;1203.20;;;;;;4977597;28;20022;-82
2023/10/05 12:50:27;;;;;;;4.45;1.60;;;666.50;1203.20;;;;;;4982452;28;20072;-83
2023/10/05 12:53:08;;;;;;;5.15;1.70;;;665.80;1228.80;;;;;;4997290;28;20096;-81
2023/10/05 12:55:37;;;;;;;3.75;1.73;;;640.60;1254.40;;;;;;4979032;28;20380;-81
2023/10/05 12:58:02;;;;;;;4.40;1.80;;;640.50;1254.40;;;;;;4995934;28;20035;-83
2023/10/05 13:00:31;;;;;;;5.22;1.90;;;665.60;1305.60;;;;;;4994998;28;20491;-80
2023/10/05 13:03:00;;;;;;;3.55;1.60;;;640.80;1305.60;;;;;;4996998;28;20401;-80
2023/10/05 13:05:43;;;;;;;4.32;1.70;;;665.60;1305.60;;;;;;4984634;28;20045;-81
2023/10/05 13:08:10;;;;;;;3.20;1.50;;;665.60;1305.60;;;;;;5014336;28;20076;-79
2023/10/05 13:10:40;;;;;;;5.00;1.90;;;665.60;1280.00;;;;;;4996797;28;20076;-80
2023/10/05 13:13:39;;;;;;;3.15;1.60;;;640.60;1280.00;;;;;;5010490;28;20141;-82
2023/10/05 13:15:57;;;;;;;4.38;1.50;;;640.50;1280.00;;;;;;4982729;28;20049;-81
2023/10/05 13:18:26;;;;;;;6.88;2.10;;;640.20;1510.40;;;;;;5010411;28;20120;-80
2023/10/05 13:20:53;;;;;;;4.35;2.00;;;640.20;1305.60;;;;;;4995289;28;20036;-83
2023/10/05 13:23:24;;;;;;;3.47;1.85;;;640.30;1305.60;;;;;;4967142;28;20500;-82
2023/10/05 13:25:51;;;;;;;4.78;1.90;;;640.50;1280.00;;;;;;4986601;28;20498;-83
2023/10/05 13:28:21;;;;;;;3.38;1.70;;;640.30;1280.00;;;;;;4997663;28;20080;-83
2023/10/05 13:30:48;;;;;;;4.45;1.95;;;640.30;1305.60;;;;;;4986649;28;20022;-83
2023/10/05 13:33:21;;;;;;;5.15;2.22;;;640.00;1280.00;;;;;;4994888;28;20057;-82
2023/10/05 13:35:49;;;;;;;7.72;3.70;;;615.20;1305.60;;;;;;4993324;28;20026;-83
2023/10/05 13:38:19;;;;;;;6.50;3.28;;;615.20;1305.60;;;;;;4992990;28;20042;-83
2023/10/05 13:40:57;;;;;;;4.38;2.20;;;615.30;1331.20;;;;;;4993626;28;20034;-83
2023/10/05 13:43:28;;;;;;;4.90;1.90;;;640.00;1280.00;;;;;;4973435;28;20031;-84
2023/10/05 13:46:12;;;;;;;3.90;1.90;;;615.30;1280.00;;;;;;4973853;28;20073;-84
2023/10/05 13:48:42;;;;;;;4.30;2.10;;;615.30;1305.60;;;;;;4960172;28;20128;-82
2023/10/05 13:51:12;;;;;;;5.68;2.50;;;615.10;1305.60;;;;;;4999017;28;20035;-81
2023/10/05 13:53:44;;;;;;;5.65;2.60;;;615.20;1280.00;;;;;;4998361;28;20041;-81
2023/10/05 13:56:12;;;;;;;5.65;3.00;;;615.20;1331.20;;;;;;4986477;28;20425;-79
2023/10/05 13:58:43;;;;;;;3.80;1.95;;;615.30;1331.20;;;;;;4970323;28;20562;-79
2023/10/05 14:01:16;;;;;;;6.43;1.90;;;615.30;1331.20;;;;;;4991729;28;20026;-83
2023/10/05 14:03:45;;;;;;;4.43;1.88;;;615.10;1331.20;;;;;;4981885;28;20246;-79
2023/10/05 14:06:14;;;;;;;3.67;1.73;;;615.10;1331.20;;;;;;4973587;28;20034;-80
2023/10/05 14:08:44;;;;;;;5.72;1.70;;;615.10;1356.80;;;;;;4978880;28;20531;-80
2023/10/05 14:11:10;;;;;;;4.30;2.05;;;615.00;1382.40;;;;;;4981021;28;20025;-83
2023/10/05 14:13:37;;;;;;;4.35;2.00;;;614.70;1382.40;;;;;;4991176;28;20034;-79
2023/10/05 14:16:03;;;;;;;4.47;1.67;;;614.40;1408.00;;;;;;5003066;28;20380;-82
2023/10/05 14:18:30;;;;;;;3.85;1.83;;;589.70;1408.00;;;;;;4978649;28;20089;-79
2023/10/05 14:20:57;;;;;;;3.83;1.80;;;614.60;1433.60;;;;;;4983168;28;20042;-83
2023/10/05 14:23:24;;;;;;;4.63;2.00;;;614.80;1408.00;;;;;;4999503;28;20408;-81
2023/10/05 14:25:51;;;;;;;3.40;1.83;;;614.70;1382.40;;;;;;4980171;28;20022;-80
2023/10/05 14:28:18;;;;;;;8.07;3.60;;;614.80;1382.40;;;;;;4975704;28;20050;-83
2023/10/05 14:30:50;;;;;;;4.35;2.13;;;615.00;1356.80;;;;;;4976042;28;20483;-83
2023/10/05 14:33:17;;;;;;;4.82;2.00;;;614.90;1331.20;;;;;;4993969;28;20036;-82
2023/10/05 14:35:44;;;;;;;5.47;2.97;;;614.90;1356.80;;;;;;4991565;28;20037;-83
2023/10/05 14:38:10;;;;;;;4.25;2.17;;;615.20;1382.40;;;;;;4978103;28;20116;-83
2023/10/05 14:40:37;;;;;;;4.30;1.95;;;615.20;1382.40;;;;;;4993005;28;20054;-83